Time;durP1;ratioP1;P1;durP2;ratioP2;P2;SDS_P1;SDS_P2;PMS_P1;PMS_P2;Temp;Humidity;BMP_temperature;BMP_pressure;BME280_temperature;BME280_humidity;BME280_pressure;Samples;Min_cycle;Max_cycle;Signal;HPM_P1;HPM_P2
2020/12/19 00:02:20;;;;;;;8.52;5.97;;;23.00;49.10;;;;;;5032959;28;45350;-60
2020/12/19 00:04:45;;;;;;;9.52;5.88;;;23.00;49.10;;;;;;5033495;28;45558;-60
2020/12/19 00:07:11;;;;;;;8.60;5.47;;;23.00;49.10;;;;;;5033327;28;46161;-60
2020/12/19 00:09:37;;;;;;;7.65;4.82;;;22.90;49.10;;;;;;5032682;28;45439;-60
2020/12/19 00:12:03;;;;;;;9.80;5.97;;;23.00;49.20;;;;;;5032956;28;45331;-60
2020/12/19 00:14:29;;;;;;;7.82;5.60;;;23.00;49.10;;;;;;5033500;28;45535;-60
2020/12/19 00:16:54;;;;;;;7.88;5.43;;;22.90;49.10;;;;;;5032535;28;46084;-59
2020/12/19 00:19:20;;;;;;;7.93;5.30;;;22.90;49.20;;;;;;5032331;28;45358;-61
2020/12/19 00:21:45;;;;;;;9.35;6.07;;;22.90;49.20;;;;;;5032927;28;45308;-60
2020/12/19 00:24:11;;;;;;;8.20;5.65;;;22.90;49.20;;;;;;5049879;28;45402;-60
2020/12/19 00:26:40;;;;;;;8.85;5.95;;;22.90;49.20;;;;;;5032329;28;46958;-59
2020/12/19 00:29:07;;;;;;;8.93;5.65;;;22.90;49.20;;;;;;5049186;28;45302;-60
2020/12/19 00:31:34;;;;;;;9.50;6.32;;;22.90;49.20;;;;;;5032640;28;45283;-60
2020/12/19 00:33:59;;;;;;;9.60;5.95;;;22.90;49.30;;;;;;5032155;28;45454;-60
2020/12/19 00:36:25;;;;;;;7.70;5.55;;;22.80;49.20;;;;;;5031296;28;47185;-59
2020/12/19 00:38:51;;;;;;;7.95;5.95;;;22.80;49.20;;;;;;5041754;28;45225;-61
2020/12/19 00:41:18;;;;;;;8.95;5.65;;;22.80;49.20;;;;;;5011868;28;45254;-59
2020/12/19 00:43:43;;;;;;;9.13;5.60;;;22.80;49.20;;;;;;5012207;28;45478;-60
2020/12/19 00:46:13;;;;;;;9.40;5.53;;;22.80;49.20;;;;;;5011460;28;46084;-60
2020/12/19 00:48:39;;;;;;;8.85;5.60;;;22.80;49.20;;;;;;5011226;28;45261;-60
2020/12/19 00:51:10;;;;;;;9.38;5.30;;;22.80;49.30;;;;;;5011561;28;45302;-60
2020/12/19 00:53:35;;;;;;;8.85;5.97;;;22.80;49.30;;;;;;5027889;28;45403;-60
2020/12/19 00:56:01;;;;;;;8.80;5.20;;;22.80;49.30;;;;;;4994676;28;46295;-62
2020/12/19 00:58:27;;;;;;;7.65;5.30;;;22.80;49.30;;;;;;5010919;28;45480;-60
2020/12/19 01:00:52;;;;;;;8.63;5.55;;;22.70;49.30;;;;;;5011494;28;45307;-60
2020/12/19 01:03:18;;;;;;;8.57;5.82;;;22.70;49.20;;;;;;5011756;28;45564;-61
2020/12/19 01:05:43;;;;;;;7.10;5.45;;;22.70;49.20;;;;;;5011032;28;45916;-61
2020/12/19 01:08:09;;;;;;;7.45;5.07;;;22.70;49.30;;;;;;5011118;28;45402;-61
2020/12/19 01:10:35;;;;;;;10.07;5.35;;;22.70;49.30;;;;;;5011150;28;45349;-61
2020/12/19 01:13:00;;;;;;;8.20;5.35;;;22.70;49.30;;;;;;5011569;28;45227;-61
2020/12/19 01:15:26;;;;;;;7.75;5.47;;;22.70;49.30;;;;;;5010903;28;45207;-60
2020/12/19 01:17:51;;;;;;;8.02;4.68;;;22.70;49.30;;;;;;5010908;28;45260;-61
2020/12/19 01:20:17;;;;;;;9.07;5.75;;;22.70;49.40;;;;;;5011250;28;45264;-61
2020/12/19 01:22:43;;;;;;;8.95;6.15;;;22.70;49.40;;;;;;5027658;28;45260;-61
2020/12/19 01:25:08;;;;;;;7.15;5.28;;;22.70;49.30;;;;;;5010870;28;45970;-62
2020/12/19 01:27:34;;;;;;;7.93;5.72;;;22.60;49.30;;;;;;5027153;28;45354;-61
2020/12/19 01:29:59;;;;;;;7.95;5.68;;;22.70;49.40;;;;;;5010443;28;45525;-61
2020/12/19 01:32:25;;;;;;;7.28;5.18;;;22.60;49.40;;;;;;5011157;28;45534;-61
2020/12/19 01:34:51;;;;;;;7.90;4.93;;;22.60;49.40;;;;;;4981304;28;845554;-61
2020/12/19 01:37:16;;;;;;;6.85;5.10;;;22.60;49.40;;;;;;5011414;28;45392;-61
2020/12/19 01:39:42;;;;;;;7.30;5.25;;;22.60;49.40;;;;;;5025097;28;45312;-62
2020/12/19 01:42:07;;;;;;;7.85;4.97;;;22.60;49.40;;;;;;5031994;28;45325;-61
2020/12/19 01:44:33;;;;;;;8.10;5.63;;;22.60;49.40;;;;;;5030951;28;46013;-61
2020/12/19 01:47:02;;;;;;;7.72;5.43;;;22.50;49.30;;;;;;5031426;28;45272;-61
2020/12/19 01:49:29;;;;;;;6.72;4.93;;;22.60;49.30;;;;;;5031435;28;45363;-61
2020/12/19 01:52:00;;;;;;;7.72;5.45;;;22.60;49.30;;;;;;5031837;28;45615;-61
2020/12/19 01:54:26;;;;;;;6.82;4.95;;;22.50;49.30;;;;;;5049022;28;47036;-61
2020/12/19 01:56:52;;;;;;;9.23;6.25;;;22.60;49.30;;;;;;5031247;28;45300;-61
2020/12/19 01:59:18;;;;;;;7.18;4.90;;;22.60;49.20;;;;;;5047998;28;45317;-61
2020/12/19 02:01:48;;;;;;;9.07;5.32;;;22.60;49.20;;;;;;5031743;28;45320;-61
2020/12/19 02:04:13;;;;;;;9.45;5.65;;;22.60;49.10;;;;;;5047864;28;46399;-61
2020/12/19 02:06:40;;;;;;;7.28;5.38;;;22.60;49.10;;;;;;5030185;28;45331;-60
2020/12/19 02:09:06;;;;;;;8.02;5.75;;;22.60;49.10;;;;;;5031041;28;45240;-59
2020/12/19 02:11:31;;;;;;;8.05;5.03;;;22.60;49.00;;;;;;5031382;28;45379;-60
2020/12/19 02:13:57;;;;;;;7.28;5.85;;;22.60;49.00;;;;;;5047519;28;47125;-60
2020/12/19 02:16:23;;;;;;;10.25;6.43;;;22.60;49.10;;;;;;5047216;28;45355;-60
2020/12/19 02:18:48;;;;;;;8.27;5.63;;;22.60;49.00;;;;;;5030881;28;45369;-60
2020/12/19 02:21:14;;;;;;;8.20;5.78;;;22.60;49.00;;;;;;5031640;28;45296;-60
2020/12/19 02:23:40;;;;;;;8.18;5.47;;;22.60;49.00;;;;;;5030628;28;46879;-60
2020/12/19 02:26:05;;;;;;;8.43;5.80;;;22.60;49.00;;;;;;5030448;28;45468;-60
2020/12/19 02:28:31;;;;;;;7.63;5.57;;;22.60;49.00;;;;;;5030886;28;45600;-60
2020/12/19 02:30:56;;;;;;;7.28;5.43;;;22.50;48.90;;;;;;5048229;28;45463;-60
2020/12/19 02:33:22;;;;;;;7.95;5.90;;;22.60;49.00;;;;;;5030381;28;47079;-60
2020/12/19 02:35:48;;;;;;;8.85;5.20;;;22.50;48.90;;;;;;5030338;28;45353;-60
2020/12/19 02:38:13;;;;;;;7.65;4.88;;;22.60;48.90;;;;;;5029870;28;45375;-60
2020/12/19 02:40:39;;;;;;;7.68;5.53;;;22.60;48.90;;;;;;5011046;28;45636;-60
2020/12/19 02:43:04;;;;;;;7.25;5.53;;;22.50;48.90;;;;;;5010754;28;47046;-60
2020/12/19 02:45:30;;;;;;;7.50;5.07;;;22.50;48.90;;;;;;5010885;28;45335;-60
2020/12/19 02:47:56;;;;;;;8.63;5.60;;;22.50;48.90;;;;;;5010922;28;45396;-60
2020/12/19 02:50:21;;;;;;;9.43;5.60;;;22.50;48.90;;;;;;5011250;28;45438;-60
2020/12/19 02:52:47;;;;;;;8.38;5.65;;;22.50;48.90;;;;;;5026880;28;47096;-60
2020/12/19 02:55:12;;;;;;;6.97;5.20;;;22.50;48.90;;;;;;5010527;28;45403;-61
2020/12/19 02:57:38;;;;;;;9.82;5.95;;;22.50;48.90;;;;;;5010406;28;45273;-60
2020/12/19 03:00:04;;;;;;;6.47;4.65;;;22.50;48.90;;;;;;5027413;28;45257;-60
2020/12/19 03:02:30;;;;;;;7.20;5.07;;;22.50;48.90;;;;;;5010351;28;47016;-60
2020/12/19 03:04:56;;;;;;;7.05;4.78;;;22.50;49.00;;;;;;5026574;28;45292;-60
2020/12/19 03:07:21;;;;;;;8.02;5.05;;;22.50;48.90;;;;;;5011479;28;45514;-59
2020/12/19 03:09:47;;;;;;;8.98;5.72;;;22.50;48.80;;;;;;5017219;28;45627;-60
2020/12/19 03:12:12;;;;;;;9.00;5.20;;;22.50;48.90;;;;;;5029596;28;46168;-60
2020/12/19 03:14:38;;;;;;;7.95;4.88;;;22.60;49.10;;;;;;5026779;28;45335;-61
2020/12/19 03:17:04;;;;;;;7.78;5.00;;;22.70;49.20;;;;;;5026590;28;45280;-60
2020/12/19 03:19:29;;;;;;;7.50;5.10;;;22.70;49.10;;;;;;5025946;28;45310;-60
2020/12/19 03:21:55;;;;;;;8.63;5.50;;;22.70;49.10;;;;;;5026302;28;46188;-60
2020/12/19 03:24:20;;;;;;;6.82;4.95;;;22.80;49.10;;;;;;5026574;28;45586;-60
2020/12/19 03:26:46;;;;;;;8.00;5.15;;;22.80;49.10;;;;;;5026704;28;45640;-60
2020/12/19 03:29:12;;;;;;;6.88;5.05;;;22.80;49.00;;;;;;5026942;28;45481;-60
2020/12/19 03:31:38;;;;;;;7.35;5.30;;;22.80;49.00;;;;;;5026009;28;45426;-59
2020/12/19 03:34:04;;;;;;;7.15;4.95;;;22.80;49.60;;;;;;5042530;28;45546;-60
2020/12/19 03:36:29;;;;;;;8.07;5.10;;;22.80;48.90;;;;;;5026419;28;45448;-59
2020/12/19 03:38:55;;;;;;;9.25;4.90;;;22.80;48.90;;;;;;5030353;28;45481;-59
2020/12/19 03:41:20;;;;;;;7.78;5.78;;;22.80;48.90;;;;;;5029633;28;47053;-60
2020/12/19 03:43:46;;;;;;;7.90;5.80;;;22.80;48.90;;;;;;5029380;28;45391;-59
2020/12/19 03:46:12;;;;;;;6.95;4.97;;;22.80;48.80;;;;;;5029823;28;45430;-60
2020/12/19 03:48:38;;;;;;;8.45;5.53;;;22.90;48.70;;;;;;5030151;28;45577;-60
2020/12/19 03:51:04;;;;;;;7.60;5.38;;;22.90;48.80;;;;;;5029478;28;46987;-60
2020/12/19 03:53:29;;;;;;;7.38;4.70;;;22.90;48.90;;;;;;5045990;28;45563;-59
2020/12/19 03:55:55;;;;;;;7.53;5.00;;;22.90;48.90;;;;;;5029810;28;45483;-60
2020/12/19 03:58:21;;;;;;;7.88;5.45;;;23.00;49.50;;;;;;5030165;28;45225;-60
2020/12/19 04:00:46;;;;;;;6.43;4.30;;;23.00;48.80;;;;;;5029128;28;45411;-60
2020/12/19 04:03:12;;;;;;;6.68;4.90;;;23.00;48.80;;;;;;5029497;28;45260;-60
2020/12/19 04:05:37;;;;;;;7.97;4.93;;;23.00;48.70;;;;;;5046135;28;45404;-60
2020/12/19 04:08:03;;;;;;;7.25;4.70;;;23.10;48.70;;;;;;5028515;28;45706;-60
2020/12/19 04:10:29;;;;;;;6.95;4.57;;;23.10;48.70;;;;;;5029426;28;45360;-61
2020/12/19 04:12:54;;;;;;;10.15;5.30;;;23.10;48.60;;;;;;5029106;28;45444;-61
2020/12/19 04:15:23;;;;;;;6.65;4.70;;;23.10;48.50;;;;;;5029585;28;45320;-60
2020/12/19 04:17:52;;;;;;;7.65;5.22;;;23.20;48.50;;;;;;5030392;28;45297;-60
2020/12/19 04:20:17;;;;;;;7.88;5.28;;;23.20;48.50;;;;;;5029477;28;45332;-60
2020/12/19 04:22:43;;;;;;;7.70;4.60;;;23.20;48.40;;;;;;5029315;28;45347;-60
2020/12/19 04:25:11;;;;;;;7.45;4.53;;;23.20;48.50;;;;;;5027123;28;45785;-60
2020/12/19 04:27:38;;;;;;;7.95;5.05;;;23.20;48.50;;;;;;5028100;28;45398;-60
2020/12/19 04:30:04;;;;;;;7.07;4.72;;;23.20;48.50;;;;;;5030071;28;46150;-60
2020/12/19 04:32:30;;;;;;;7.43;4.80;;;23.30;48.40;;;;;;5046885;28;45375;-60
2020/12/19 04:34:55;;;;;;;6.13;4.40;;;23.30;48.30;;;;;;5047045;28;45544;-60
2020/12/19 04:37:21;;;;;;;5.40;4.25;;;23.30;48.30;;;;;;5030859;28;45517;-60
2020/12/19 04:39:47;;;;;;;6.82;4.65;;;23.40;48.30;;;;;;5034472;28;46045;-60
2020/12/19 04:42:13;;;;;;;7.57;5.10;;;23.40;48.30;;;;;;5012415;28;45427;-60
2020/12/19 04:44:39;;;;;;;8.35;4.57;;;23.40;48.20;;;;;;5012700;28;45446;-60
2020/12/19 04:47:05;;;;;;;6.43;4.38;;;23.40;48.20;;;;;;5013115;28;45317;-60
2020/12/19 04:49:30;;;;;;;6.75;4.22;;;23.40;48.20;;;;;;5012050;28;47180;-60
2020/12/19 04:51:57;;;;;;;6.88;4.28;;;23.40;48.10;;;;;;5012512;28;45354;-61
2020/12/19 04:54:23;;;;;;;5.90;4.18;;;23.40;48.00;;;;;;5012837;28;45380;-60
2020/12/19 04:56:48;;;;;;;6.50;4.50;;;23.40;48.00;;;;;;5012791;28;45392;-60
2020/12/19 04:59:14;;;;;;;7.68;4.93;;;23.50;48.00;;;;;;5012244;28;45170;-60
2020/12/19 05:01:40;;;;;;;6.68;4.47;;;23.50;48.00;;;;;;5025846;28;45431;-60
2020/12/19 05:04:05;;;;;;;7.15;4.65;;;23.50;47.90;;;;;;5048910;28;45449;-60
2020/12/19 05:06:31;;;;;;;6.35;4.03;;;23.50;47.90;;;;;;5048932;28;45693;-60
2020/12/19 05:08:56;;;;;;;5.97;4.22;;;23.50;47.90;;;;;;5048657;28;46250;-60
2020/12/19 05:11:24;;;;;;;5.78;3.92;;;23.50;47.80;;;;;;5048685;28;45326;-60
2020/12/19 05:13:49;;;;;;;6.43;4.40;;;23.50;47.80;;;;;;5048944;28;45415;-60
2020/12/19 05:16:16;;;;;;;6.82;4.28;;;23.50;47.70;;;;;;5049223;28;45367;-60
2020/12/19 05:18:42;;;;;;;6.63;4.60;;;23.50;47.70;;;;;;5048277;28;45320;-60
2020/12/19 05:21:08;;;;;;;6.90;4.45;;;23.50;47.70;;;;;;5048324;28;45256;-60
2020/12/19 05:23:37;;;;;;;5.60;3.83;;;23.60;47.70;;;;;;5048654;28;45299;-60
2020/12/19 05:26:03;;;;;;;5.68;4.30;;;23.60;47.70;;;;;;5048946;28;45430;-60
2020/12/19 05:28:29;;;;;;;7.20;4.50;;;23.60;48.30;;;;;;5047942;28;45264;-60
2020/12/19 05:30:58;;;;;;;5.72;3.92;;;23.60;47.70;;;;;;5048399;28;45347;-60
2020/12/19 05:33:23;;;;;;;7.45;4.03;;;23.60;47.60;;;;;;5048428;28;45321;-60
2020/12/19 05:35:49;;;;;;;6.60;4.47;;;23.60;48.20;;;;;;5048533;28;45348;-60
2020/12/19 05:38:15;;;;;;;6.00;4.30;;;23.60;47.60;;;;;;5047931;28;45454;-60
2020/12/19 05:40:40;;;;;;;7.05;4.88;;;23.60;47.60;;;;;;5030357;28;45396;-60
2020/12/19 05:43:06;;;;;;;6.75;4.10;;;23.70;47.60;;;;;;5031696;28;45466;-60
2020/12/19 05:45:32;;;;;;;5.93;4.07;;;23.70;47.60;;;;;;5031862;28;45532;-60
2020/12/19 05:47:58;;;;;;;6.82;4.43;;;23.70;47.60;;;;;;5031329;28;46371;-60
2020/12/19 05:50:23;;;;;;;5.30;4.00;;;23.70;47.50;;;;;;5031094;28;45399;-60
2020/12/19 05:52:49;;;;;;;5.80;4.15;;;23.80;47.50;;;;;;5031234;28;45315;-60
2020/12/19 05:55:16;;;;;;;6.20;4.38;;;23.80;47.50;;;;;;5031823;28;45447;-60
2020/12/19 05:57:42;;;;;;;6.93;4.07;;;23.90;47.50;;;;;;5031097;28;46427;-60
2020/12/19 06:00:17;;;;;;;5.35;3.80;;;23.90;47.40;;;;;;5030939;28;45292;-60
2020/12/19 06:02:43;;;;;;;6.88;4.13;;;23.90;47.30;;;;;;5048038;28;45378;-60
2020/12/19 06:05:13;;;;;;;5.57;3.75;;;23.90;47.30;;;;;;5031626;28;45525;-60
2020/12/19 06:07:41;;;;;;;6.38;4.10;;;24.00;47.30;;;;;;5049082;28;46258;-60
2020/12/19 06:10:11;;;;;;;6.35;4.00;;;24.00;47.20;;;;;;5047307;28;45361;-62
2020/12/19 06:13:02;;;;;;;5.68;3.83;;;24.00;47.20;;;;;;5031348;28;45380;-61
2020/12/19 06:16:05;;;;;;;5.82;4.03;;;24.10;47.10;;;;;;5049534;28;45529;-61
2020/12/19 06:18:51;;;;;;;5.85;4.07;;;24.00;47.10;;;;;;5047551;28;46071;-60
2020/12/19 06:21:17;;;;;;;6.13;4.40;;;24.00;47.00;;;;;;5048703;28;45391;-60
2020/12/19 06:23:43;;;;;;;7.25;5.22;;;24.10;47.10;;;;;;5047687;28;45303;-61
2020/12/19 06:26:09;;;;;;;7.30;5.57;;;24.10;47.00;;;;;;5031273;28;45307;-61
2020/12/19 06:28:41;;;;;;;6.57;4.85;;;24.10;46.90;;;;;;5047731;28;45398;-61
2020/12/19 06:31:08;;;;;;;7.70;4.80;;;24.10;46.70;;;;;;5048698;28;45413;-61
2020/12/19 06:33:34;;;;;;;7.63;5.07;;;24.10;46.70;;;;;;5030473;28;45397;-61
2020/12/19 06:36:01;;;;;;;8.90;5.25;;;24.20;46.70;;;;;;5029943;28;45344;-61
2020/12/19 06:38:41;;;;;;;7.15;4.75;;;24.20;46.60;;;;;;5040668;28;46102;-61
2020/12/19 06:41:07;;;;;;;8.27;4.70;;;24.20;46.50;;;;;;5043795;28;45364;-62
2020/12/19 06:43:33;;;;;;;8.60;5.18;;;24.20;46.50;;;;;;5030665;28;45368;-61
2020/12/19 06:45:58;;;;;;;9.27;5.47;;;24.30;46.50;;;;;;5047875;28;45507;-61
2020/12/19 06:48:32;;;;;;;10.95;5.85;;;24.30;46.40;;;;;;5045323;28;47275;-61
2020/12/19 06:51:04;;;;;;;12.10;6.05;;;24.30;46.40;;;;;;5026805;28;45336;-61
2020/12/19 06:53:30;;;;;;;12.02;6.22;;;24.30;46.40;;;;;;5025730;28;45667;-61
2020/12/19 06:55:57;;;;;;;10.23;6.30;;;24.30;46.50;;;;;;5022336;28;45313;-61
2020/12/19 06:58:33;;;;;;;11.18;6.22;;;24.30;46.40;;;;;;5026804;28;46394;-60
2020/12/19 07:00:59;;;;;;;13.27;6.15;;;24.30;46.50;;;;;;5031285;28;45294;-60
2020/12/19 07:03:38;;;;;;;15.52;7.50;;;24.30;46.40;;;;;;5030428;28;45286;-60
2020/12/19 07:06:14;;;;;;;10.65;6.22;;;24.30;46.30;;;;;;5030728;28;45315;-61
2020/12/19 07:08:40;;;;;;;11.25;6.20;;;24.30;46.40;;;;;;5047999;28;47043;-60
2020/12/19 07:11:08;;;;;;;10.20;5.95;;;24.30;46.40;;;;;;5045570;28;45357;-60
2020/12/19 07:14:13;;;;;;;12.05;5.85;;;24.30;46.40;;;;;;5046841;28;45426;-61
2020/12/19 07:16:51;;;;;;;13.88;6.25;;;24.40;46.40;;;;;;5021653;28;45688;-60
2020/12/19 07:19:27;;;;;;;12.65;6.53;;;24.40;46.40;;;;;;4991093;28;47005;-61
2020/12/19 07:21:58;;;;;;;13.00;5.93;;;24.40;46.40;;;;;;5005993;28;45445;-61
2020/12/19 07:24:24;;;;;;;10.57;5.50;;;24.50;46.50;;;;;;5034650;28;45351;-61
2020/12/19 07:26:50;;;;;;;14.20;6.75;;;24.50;46.50;;;;;;5035730;28;45460;-58
2020/12/19 07:29:25;;;;;;;12.32;5.68;;;24.50;46.40;;;;;;5019374;28;45668;-58
2020/12/19 07:31:54;;;;;;;;;;;24.60;46.60;;;;;;5039211;28;45346;-58
2020/12/19 07:34:20;;;;;;;19.65;7.53;;;24.50;46.40;;;;;;5033600;28;45530;-58
2020/12/19 07:36:46;;;;;;;21.92;10.80;;;24.50;46.50;;;;;;5016941;28;45368;-58
2020/12/19 07:39:13;;;;;;;19.83;11.70;;;24.50;44.70;;;;;;5021184;28;46106;-69
2020/12/19 07:41:38;;;;;;;20.33;13.55;;;24.40;43.10;;;;;;5016652;28;45247;-58
2020/12/19 07:44:22;;;;;;;18.88;12.70;;;24.20;41.20;;;;;;5018299;28;45380;-59
2020/12/19 07:46:49;;;;;;;20.35;14.95;;;24.00;38.20;;;;;;5032463;28;45492;-58
2020/12/19 07:49:30;;;;;;;20.38;14.68;;;23.90;39.50;;;;;;5033825;28;46004;-59
2020/12/19 07:52:06;;;;;;;39.30;17.80;;;23.80;38.20;;;;;;5032975;28;45336;-58
2020/12/19 07:54:32;;;;;;;30.40;17.50;;;23.70;41.80;;;;;;5034854;28;45410;-59
2020/12/19 07:56:58;;;;;;;37.00;22.80;;;23.40;40.40;;;;;;5016154;28;45487;-59
2020/12/19 07:59:24;;;;;;;24.27;18.40;;;23.30;39.20;;;;;;5035240;28;47242;-60
2020/12/19 08:01:49;;;;;;;24.73;17.55;;;23.20;38.70;;;;;;5017347;28;45419;-60
2020/12/19 08:04:15;;;;;;;24.02;16.05;;;23.10;38.50;;;;;;5020060;28;45419;-58
2020/12/19 08:06:45;;;;;;;24.75;15.20;;;23.00;38.30;;;;;;5039300;28;45706;-58
2020/12/19 08:09:11;;;;;;;20.70;13.52;;;22.90;37.90;;;;;;5019945;28;45411;-58
2020/12/19 08:11:44;;;;;;;24.17;14.50;;;22.90;38.60;;;;;;5021900;28;45546;-59
2020/12/19 08:14:10;;;;;;;17.50;12.27;;;23.00;39.10;;;;;;5039177;28;45364;-58
2020/12/19 08:16:37;;;;;;;17.42;12.50;;;23.00;39.40;;;;;;5022404;28;45366;-58
2020/12/19 08:19:02;;;;;;;16.00;11.80;;;23.10;39.20;;;;;;5020233;28;46179;-58
2020/12/19 08:21:28;;;;;;;19.38;11.93;;;23.20;39.40;;;;;;5021613;28;45468;-58
2020/12/19 08:23:55;;;;;;;15.65;11.05;;;23.20;39.60;;;;;;5019650;28;45479;-58
2020/12/19 08:26:20;;;;;;;15.70;11.07;;;23.30;39.40;;;;;;5040516;28;45609;-60
2020/12/19 08:29:03;;;;;;;17.25;11.75;;;23.40;39.50;;;;;;5020263;28;47014;-60
2020/12/19 08:31:29;;;;;;;17.00;11.43;;;23.40;39.20;;;;;;5033884;28;45482;-58
2020/12/19 08:33:56;;;;;;;17.17;10.90;;;23.50;39.90;;;;;;5022427;28;45459;-61
2020/12/19 08:36:22;;;;;;;14.02;10.00;;;23.50;40.20;;;;;;5019294;28;45535;-60
2020/12/19 08:38:47;;;;;;;19.35;11.20;;;23.60;40.50;;;;;;5021284;28;45517;-62
2020/12/19 08:41:19;;;;;;;17.00;10.48;;;23.70;40.60;;;;;;5027794;28;45501;-61
2020/12/19 08:43:45;;;;;;;16.85;10.55;;;23.80;40.90;;;;;;5028877;28;45241;-61
2020/12/19 08:46:14;;;;;;;21.08;10.93;;;23.80;41.10;;;;;;5029351;28;45368;-61
2020/12/19 08:48:43;;;;;;;19.98;13.20;;;23.80;41.20;;;;;;5043479;28;47283;-61
2020/12/19 08:51:09;;;;;;;25.42;15.88;;;23.80;41.30;;;;;;5020653;28;45478;-61
2020/12/19 08:53:35;;;;;;;22.75;14.45;;;23.80;41.40;;;;;;5012600;28;45305;-62
2020/12/19 08:56:18;;;;;;;17.95;11.35;;;23.80;41.70;;;;;;5029270;28;45376;-64
2020/12/19 08:58:52;;;;;;;26.02;13.85;;;23.90;42.30;;;;;;5011811;28;46252;-62
2020/12/19 09:01:18;;;;;;;22.27;13.43;;;23.90;43.00;;;;;;5028627;28;45549;-63
2020/12/19 09:03:44;;;;;;;23.58;11.90;;;23.90;43.10;;;;;;5011945;28;45322;-62
2020/12/19 09:06:13;;;;;;;27.67;15.02;;;23.90;43.50;;;;;;5012967;28;45651;-62
2020/12/19 09:08:42;;;;;;;20.67;14.00;;;23.80;42.40;;;;;;5028323;28;47197;-62
2020/12/19 09:11:09;;;;;;;23.30;15.32;;;23.80;41.50;;;;;;5036033;28;45304;-63
2020/12/19 09:13:36;;;;;;;21.25;14.90;;;23.70;41.20;;;;;;5027226;28;45787;-63
2020/12/19 09:16:09;;;;;;;15.82;12.75;;;23.70;40.00;;;;;;5031881;28;45280;-63
2020/12/19 09:18:38;;;;;;;20.23;13.00;;;23.70;39.50;;;;;;5028751;28;46174;-62
2020/12/19 09:21:09;;;;;;;18.95;11.73;;;23.70;40.00;;;;;;5027056;28;45250;-62
2020/12/19 09:23:35;;;;;;;19.35;11.57;;;23.80;41.50;;;;;;5035663;28;45356;-65
2020/12/19 09:26:02;;;;;;;17.30;9.45;;;23.90;42.20;;;;;;5034829;28;45598;-64
2020/12/19 09:28:28;;;;;;;20.02;11.15;;;23.90;42.40;;;;;;5047616;28;45629;-63
2020/12/19 09:30:54;;;;;;;13.82;10.10;;;24.00;42.80;;;;;;5031112;28;45458;-63
2020/12/19 09:33:19;;;;;;;17.90;9.98;;;24.10;43.10;;;;;;5022163;28;46825;-64
2020/12/19 09:35:45;;;;;;;14.85;9.38;;;24.10;43.30;;;;;;5013104;28;45542;-60
2020/12/19 09:38:11;;;;;;;14.88;8.45;;;24.10;43.70;;;;;;5027960;28;45555;-61
2020/12/19 09:40:37;;;;;;;13.60;8.63;;;24.10;43.70;;;;;;5028254;28;45325;-61
2020/12/19 09:43:02;;;;;;;12.25;7.90;;;24.10;43.80;;;;;;5027894;28;45402;-63
2020/12/19 09:45:28;;;;;;;22.35;9.02;;;24.10;44.10;;;;;;5047891;28;45542;-62
2020/12/19 09:47:57;;;;;;;15.88;8.30;;;24.20;44.00;;;;;;5030823;28;47100;-61
2020/12/19 09:50:23;;;;;;;13.75;8.18;;;24.20;44.30;;;;;;5031012;28;45735;-59
2020/12/19 09:52:49;;;;;;;16.52;8.35;;;24.30;44.50;;;;;;5038055;28;45415;-60
2020/12/19 09:55:15;;;;;;;15.40;7.93;;;24.30;44.50;;;;;;5067745;28;45588;-59
2020/12/19 09:57:40;;;;;;;12.63;7.50;;;24.40;44.40;;;;;;5051145;28;46849;-60
2020/12/19 10:00:07;;;;;;;40.65;8.90;;;24.40;44.50;;;;;;5049473;28;45289;-60
2020/12/19 10:02:32;;;;;;;16.15;7.55;;;24.40;44.70;;;;;;5021694;28;45297;-59
2020/12/19 10:04:58;;;;;;;11.63;7.32;;;24.40;44.60;;;;;;5047268;28;45609;-60
2020/12/19 10:07:24;;;;;;;13.43;7.45;;;24.50;44.40;;;;;;5030358;28;45407;-61
2020/12/19 10:09:49;;;;;;;10.85;6.90;;;24.50;44.30;;;;;;5029909;28;45408;-62
2020/12/19 10:12:15;;;;;;;12.20;7.40;;;24.60;44.20;;;;;;5030175;28;45438;-59
2020/12/19 10:14:41;;;;;;;12.23;6.80;;;24.70;44.20;;;;;;5030647;28;45418;-68
2020/12/19 10:17:06;;;;;;;13.43;7.25;;;24.70;44.20;;;;;;5025328;28;46982;-64
2020/12/19 10:19:32;;;;;;;15.05;7.10;;;24.70;44.90;;;;;;5037638;28;45442;-64
2020/12/19 10:21:58;;;;;;;12.50;7.07;;;24.80;44.50;;;;;;5040637;28;45526;-62
2020/12/19 10:24:25;;;;;;;10.77;5.55;;;24.80;44.40;;;;;;5021280;28;45435;-60
2020/12/19 10:26:50;;;;;;;10.27;6.03;;;24.90;44.30;;;;;;5018606;28;46029;-59
2020/12/19 10:29:16;;;;;;;10.10;6.10;;;24.90;44.20;;;;;;5023807;28;45502;-59
2020/12/19 10:31:42;;;;;;;8.57;5.68;;;24.90;44.10;;;;;;5029282;28;45450;-59
2020/12/19 10:34:07;;;;;;;9.38;6.13;;;25.00;44.20;;;;;;5025970;28;45451;-64
2020/12/19 10:36:33;;;;;;;13.88;7.35;;;25.00;44.20;;;;;;5026451;28;45893;-59
2020/12/19 10:38:59;;;;;;;15.95;8.02;;;24.90;44.00;;;;;;5033541;28;45328;-59
2020/12/19 10:41:24;;;;;;;13.70;7.95;;;24.90;44.30;;;;;;5026393;28;45388;-59
2020/12/19 10:43:50;;;;;;;17.10;8.38;;;24.90;44.50;;;;;;5027254;28;45355;-59
2020/12/19 10:46:22;;;;;;;18.40;8.75;;;24.80;44.70;;;;;;5026489;28;45496;-59
2020/12/19 10:48:48;;;;;;;16.65;8.50;;;24.80;44.90;;;;;;5027383;28;45605;-59
2020/12/19 10:51:14;;;;;;;16.25;8.00;;;24.80;44.80;;;;;;5019332;28;45500;-59
2020/12/19 10:53:43;;;;;;;13.68;7.57;;;24.80;44.60;;;;;;5034409;28;45402;-59
2020/12/19 10:56:19;;;;;;;14.30;7.55;;;24.70;44.50;;;;;;5035923;28;46933;-59
2020/12/19 10:58:45;;;;;;;15.00;7.20;;;24.80;44.50;;;;;;5036920;28;45336;-59
2020/12/19 11:01:10;;;;;;;12.80;7.82;;;24.70;44.50;;;;;;5036143;28;45603;-59
2020/12/19 11:03:36;;;;;;;15.20;7.82;;;24.70;44.50;;;;;;5021472;28;45787;-59
2020/12/19 11:06:03;;;;;;;10.93;6.55;;;24.70;44.30;;;;;;5036064;28;46922;-59
2020/12/19 11:08:28;;;;;;;14.02;7.25;;;24.70;44.60;;;;;;5033821;28;45379;-61
2020/12/19 11:10:54;;;;;;;15.13;7.65;;;24.70;45.00;;;;;;5018238;28;45470;-59
2020/12/19 11:13:20;;;;;;;13.57;7.22;;;24.70;45.30;;;;;;5037044;28;45432;-60
2020/12/19 11:15:45;;;;;;;14.35;7.50;;;24.70;45.30;;;;;;5019049;28;47156;-60
2020/12/19 11:18:11;;;;;;;15.15;7.93;;;24.70;45.10;;;;;;5035792;28;45348;-60
2020/12/19 11:20:37;;;;;;;16.50;7.85;;;24.70;44.60;;;;;;5018349;28;46571;-58
2020/12/19 11:23:03;;;;;;;13.00;8.38;;;24.60;44.10;;;;;;5036268;28;45625;-60
2020/12/19 11:25:28;;;;;;;14.10;8.85;;;24.60;42.20;;;;;;5016016;28;45312;-60
2020/12/19 11:27:54;;;;;;;12.15;8.27;;;24.40;40.90;;;;;;5009425;28;45473;-59
2020/12/19 11:30:19;;;;;;;20.85;9.82;;;24.30;40.00;;;;;;5011125;28;45774;-62
2020/12/19 11:32:45;;;;;;;13.05;8.55;;;24.20;40.20;;;;;;5029966;28;45387;-62
2020/12/19 11:35:11;;;;;;;18.35;8.50;;;24.20;41.50;;;;;;5028768;28;45323;-62
2020/12/19 11:37:36;;;;;;;13.90;6.45;;;24.20;42.90;;;;;;5037842;28;45429;-63
2020/12/19 11:40:03;;;;;;;12.48;6.18;;;24.20;43.80;;;;;;5028427;28;45554;-64
2020/12/19 11:42:28;;;;;;;17.67;7.63;;;24.20;43.90;;;;;;5042507;28;45744;-64
2020/12/19 11:44:54;;;;;;;13.95;7.07;;;24.30;44.60;;;;;;5047752;28;46909;-64
2020/12/19 11:47:20;;;;;;;12.32;7.13;;;24.30;45.00;;;;;;5031985;28;45575;-64
2020/12/19 11:49:45;;;;;;;10.55;6.60;;;24.30;45.20;;;;;;5032541;28;45421;-64
2020/12/19 11:52:11;;;;;;;17.25;7.28;;;24.30;45.60;;;;;;5032949;28;45379;-64
2020/12/19 11:54:37;;;;;;;10.88;6.75;;;24.30;45.60;;;;;;5047112;28;45939;-64
2020/12/19 11:57:03;;;;;;;11.93;6.30;;;24.30;45.80;;;;;;5030562;28;45583;-64
2020/12/19 11:59:28;;;;;;;14.75;7.07;;;24.30;46.40;;;;;;5030812;28;45401;-64
2020/12/19 12:01:54;;;;;;;15.20;7.15;;;24.30;45.60;;;;;;5030931;28;45642;-64
2020/12/19 12:04:20;;;;;;;11.95;6.60;;;24.30;45.70;;;;;;5030555;28;47164;-65
2020/12/19 12:06:45;;;;;;;17.35;7.45;;;24.30;45.80;;;;;;5048015;28;45423;-61
2020/12/19 12:09:11;;;;;;;12.48;6.40;;;24.30;46.80;;;;;;5031783;28;45431;-60
2020/12/19 12:11:37;;;;;;;15.00;5.95;;;24.30;46.30;;;;;;5029874;28;45419;-57
2020/12/19 12:14:02;;;;;;;15.43;6.57;;;24.20;46.60;;;;;;5021617;28;45479;-61
2020/12/19 12:16:28;;;;;;;13.93;7.22;;;24.10;46.30;;;;;;5034100;28;45365;-61
2020/12/19 12:18:54;;;;;;;17.48;7.68;;;24.10;46.00;;;;;;5028701;28;45383;-61
2020/12/19 12:21:20;;;;;;;13.75;6.75;;;24.10;45.90;;;;;;5012966;28;45396;-60
2020/12/19 12:23:46;;;;;;;12.10;6.78;;;24.00;46.00;;;;;;5028872;28;45964;-61
2020/12/19 12:26:20;;;;;;;15.93;6.95;;;24.00;46.20;;;;;;5022323;28;45542;-60
2020/12/19 12:28:46;;;;;;;16.30;7.00;;;23.90;46.40;;;;;;5041150;28;45525;-61
2020/12/19 12:31:11;;;;;;;12.23;6.53;;;23.90;46.60;;;;;;5029088;28;45312;-61
2020/12/19 12:33:37;;;;;;;13.88;7.15;;;23.90;46.60;;;;;;5031286;28;45368;-60
2020/12/19 12:36:03;;;;;;;11.75;6.90;;;23.90;46.60;;;;;;5031488;28;45504;-60
2020/12/19 12:38:28;;;;;;;15.70;9.38;;;23.80;46.10;;;;;;5028814;28;45553;-61
2020/12/19 12:40:54;;;;;;;13.02;8.45;;;23.60;43.30;;;;;;5028997;28;45399;-60